This is the latest recevied weather packets stored in our database for station/object AE7MK-13. If no packets are shown the sender has not sent any weather packets the latest 10 day(s).
| Time | Temp. | Humidity | Pressure | Rain* | Wind** | Luminosity | Snow |
|---|---|---|---|---|---|---|---|
| 1778032803 | 21.11° C | 33% | 1013.6 hPa | 0 mm | - | - | - |
| 1778032333 | 21.11° C | 34% | 1013.4 hPa | 0 mm | - | - | - |
| 1778028603 | 20.56° C | 35% | 1013.6 hPa | 0 mm | - | - | - |
| 1778020803 | 21.67° C | 32% | 1014.3 hPa | 0 mm | - | - | - |
| 1778020334 | 22.22° C | 33% | 1014.4 hPa | 0 mm | - | - | - |
| 1778016003 | 21.11° C | 35% | 1014.9 hPa | 0 mm | - | - | - |
| 1778011203 | 20° C | 37% | 1015.4 hPa | 0 mm | - | - | - |
| 1778006403 | 19.44° C | 37% | 1015.5 hPa | 0 mm | - | - | - |
| 1778005932 | 20° C | 38% | 1015.5 hPa | 0 mm | - | - | - |
| 1778005203 | 19.44° C | 37% | 1015.4 hPa | 0 mm | - | - | - |
| 1778002334 | 18.33° C | 39% | 1015.4 hPa | 0 mm | - | - | - |
| 1777996933 | 16.67° C | 43% | 1015.2 hPa | 0 mm | - | - | - |
| 1777996203 | 16.11° C | 43% | 1015.3 hPa | 0 mm | - | - | - |
| 1777995603 | 16.11° C | 43% | 1015.3 hPa | 0 mm | - | - | - |
| 1777995003 | 15.56° C | 43% | 1015.3 hPa | 0 mm | - | - | - |
| 1777993203 | 15° C | 44% | 1015.1 hPa | 0 mm | - | - | - |
| 1777991403 | 15° C | 44% | 1014.9 hPa | 0 mm | - | - | - |
| 1777989003 | 14.44° C | 47% | 1014.5 hPa | 0 mm | - | - | - |
| 1777986003 | 11.67° C | 54% | 1013.8 hPa | 0 mm | - | - | - |
| 1777981803 | 12.22° C | 52% | 1013.4 hPa | 0 mm | - | - | - |
| 1777978803 | 12.22° C | 54% | 1013.5 hPa | 0 mm | - | - | - |
| 1777977603 | 12.78° C | 53% | 1013.2 hPa | 0 mm | - | - | - |
| 1777972203 | 12.78° C | 49% | 1013 hPa | 0 mm | - | - | - |
| 1777971003 | 13.33° C | 47% | 1013 hPa | 0 mm | - | - | - |
| 1777962603 | 15° C | 47% | 1012.5 hPa | 0 mm | - | - | - |
* Rain latest hour (hover to see other rain measurements)
** Current wind speed in m/s (hover to see current wind gust speed)